Time;durP1;ratioP1;P1;durP2;ratioP2;P2;SDS_P1;SDS_P2;PMS_P1;PMS_P2;Temp;Humidity;BMP_temperature;BMP_pressure;BME280_temperature;BME280_humidity;BME280_pressure;Samples;Min_cycle;Max_cycle;Signal;HPM_P1;HPM_P2
2024/01/20 00:02:03;;;;;;;21.17;10.30;;;-3.20;99.90;;;-3.66;98.43;101812.75;4838836;28;21650;-65
2024/01/20 00:04:25;;;;;;;23.67;11.47;;;-3.20;99.90;;;-3.78;98.61;101811.84;4852518;28;24480;-64
2024/01/20 00:06:47;;;;;;;21.27;10.52;;;-3.20;99.90;;;-3.89;98.34;101806.69;4850260;28;24431;-64
2024/01/20 00:09:10;;;;;;;19.35;9.50;;;-3.40;99.90;;;-3.86;97.99;101805.84;4841639;28;24460;-63
2024/01/20 00:11:33;;;;;;;21.02;10.85;;;-3.40;99.90;;;-3.87;97.75;101811.78;4851610;28;24998;-64
2024/01/20 00:13:55;;;;;;;25.40;12.57;;;-3.40;99.90;;;-3.88;98.22;101807.53;4841170;28;24989;-61
2024/01/20 00:16:18;;;;;;;24.65;12.80;;;-3.40;99.90;;;-3.85;98.21;101808.41;4831872;28;24524;-65
2024/01/20 00:18:40;;;;;;;19.67;10.80;;;-3.40;99.90;;;-3.83;98.25;101809.25;4838938;28;24953;-65
2024/01/20 00:21:03;;;;;;;21.00;10.85;;;-3.40;99.90;;;-3.79;98.12;101815.25;4845477;28;24455;-62
2024/01/20 00:23:25;;;;;;;25.98;12.30;;;-3.30;99.90;;;-3.78;98.00;101812.69;4848759;28;24456;-66
2024/01/20 00:25:47;;;;;;;21.42;10.98;;;-3.30;99.90;;;-3.73;97.63;101820.38;4847955;28;20756;-65
2024/01/20 00:28:09;;;;;;;27.95;11.73;;;-3.30;99.90;;;-3.71;98.33;101827.19;4854032;28;24447;-64
2024/01/20 00:30:31;;;;;;;26.35;12.65;;;-3.30;99.90;;;-3.64;97.94;101834.00;4856906;28;24489;-64
2024/01/20 00:32:53;;;;;;;24.00;12.30;;;-3.30;99.90;;;-3.62;97.96;101839.97;4853809;28;24430;-65
2024/01/20 00:35:15;;;;;;;22.27;11.43;;;-3.20;99.90;;;-3.56;98.16;101839.16;4849522;28;24447;-66
2024/01/20 00:37:38;;;;;;;24.58;12.68;;;-3.20;99.90;;;-3.53;97.57;101839.16;4853022;28;25015;-65
2024/01/20 00:40:02;;;;;;;22.70;12.20;;;-3.10;99.90;;;-3.53;97.63;101840.03;4839061;28;25076;-65
2024/01/20 00:42:24;;;;;;;22.75;11.30;;;-3.10;99.90;;;-3.53;97.31;101844.25;4853099;28;25053;-65
2024/01/20 00:44:46;;;;;;;20.73;10.60;;;-3.10;99.90;;;-3.54;96.17;101840.88;4854225;28;24995;-63
2024/01/20 00:47:08;;;;;;;18.90;9.90;;;-3.10;99.90;;;-3.60;96.21;101833.19;4850634;28;24543;-64
2024/01/20 00:49:30;;;;;;;17.73;9.75;;;-3.10;99.90;;;-3.70;96.24;101828.88;4820710;28;24463;-66
2024/01/20 00:51:52;;;;;;;17.65;9.38;;;-3.20;99.90;;;-3.90;96.15;101829.63;4820787;28;24495;-64
2024/01/20 00:54:14;;;;;;;18.45;8.88;;;-3.30;99.90;;;-4.04;96.67;101827.00;4830033;28;24447;-64
2024/01/20 00:56:36;;;;;;;18.73;9.90;;;-3.50;99.90;;;-4.26;97.55;101818.34;4828063;28;24514;-64
2024/01/20 00:58:58;;;;;;;18.25;9.27;;;-3.60;99.90;;;-4.44;98.77;101817.34;4842197;28;24896;-65
2024/01/20 01:01:20;;;;;;;24.17;11.13;;;-3.80;99.90;;;-4.39;97.87;101819.13;4832663;28;25804;-64
2024/01/20 01:03:42;;;;;;;18.75;9.23;;;-3.80;99.90;;;-4.37;98.35;101824.22;4834607;28;24443;-65
2024/01/20 01:06:04;;;;;;;20.50;9.82;;;-3.80;99.90;;;-4.38;98.23;101822.50;4849579;28;24533;-64
2024/01/20 01:08:27;;;;;;;20.38;10.20;;;-3.90;99.90;;;-4.37;98.21;101824.22;4850913;28;24480;-64
2024/01/20 01:10:48;;;;;;;21.70;10.93;;;-3.90;99.90;;;-4.35;97.95;101825.09;4845259;28;24846;-64
2024/01/20 01:13:10;;;;;;;22.15;10.27;;;-3.90;99.90;;;-4.41;97.55;101825.03;4830047;28;24865;-65
2024/01/20 01:15:32;;;;;;;18.60;9.45;;;-3.90;99.90;;;-4.49;97.17;101830.06;4854951;28;25413;-64
2024/01/20 01:17:54;;;;;;;18.67;9.55;;;-3.90;99.90;;;-4.61;97.24;101824.00;4853264;28;24444;-64
2024/01/20 01:20:16;;;;;;;20.48;9.88;;;-4.00;99.90;;;-4.63;96.62;101831.66;4837631;28;24505;-65
2024/01/20 01:22:38;;;;;;;20.67;10.90;;;-4.10;99.90;;;-4.65;96.87;101838.41;4848798;28;24450;-64
2024/01/20 01:25:00;;;;;;;22.13;10.70;;;-4.10;99.90;;;-4.60;96.94;101841.88;4840818;28;24432;-65
2024/01/20 01:27:22;;;;;;;20.95;11.27;;;-4.10;99.90;;;-4.56;97.24;101846.16;4829418;28;24436;-65
2024/01/20 01:29:44;;;;;;;21.70;11.40;;;-4.10;99.90;;;-4.51;97.16;101848.72;4842770;28;24931;-65
2024/01/20 01:32:06;;;;;;;21.15;11.35;;;-4.10;99.90;;;-4.40;97.53;101854.75;4849735;28;24518;-64
2024/01/20 01:34:28;;;;;;;22.58;11.73;;;-4.00;99.90;;;-4.28;97.70;101859.97;4843880;28;24456;-65
2024/01/20 01:36:50;;;;;;;22.52;11.77;;;-3.90;99.90;;;-4.25;97.55;101865.06;4833677;28;24519;-64
2024/01/20 01:39:12;;;;;;;26.45;11.82;;;-3.80;99.90;;;-4.14;97.00;101871.97;4850703;28;25032;-65
2024/01/20 01:41:35;;;;;;;24.42;11.38;;;-3.70;99.90;;;-4.05;97.03;101868.63;4847187;28;24970;-64
2024/01/20 01:43:57;;;;;;;22.35;11.00;;;-3.70;99.90;;;-3.97;96.90;101875.50;4845478;28;24460;-65
2024/01/20 01:46:20;;;;;;;23.88;11.88;;;-3.60;99.90;;;-3.94;95.91;101869.56;4852214;28;24843;-67
2024/01/20 01:48:42;;;;;;;21.02;11.10;;;-3.60;99.90;;;-3.93;95.39;101878.91;4834419;28;24436;-64
2024/01/20 01:51:04;;;;;;;26.52;11.30;;;-3.50;99.90;;;-3.96;95.65;101876.31;4834880;28;25041;-65
2024/01/20 01:53:27;;;;;;;25.00;10.88;;;-3.50;99.90;;;-4.05;95.78;101868.63;4848338;28;25073;-61
2024/01/20 01:55:50;;;;;;;21.85;10.40;;;-3.60;99.90;;;-4.29;96.84;101868.44;4853021;28;24520;-64
2024/01/20 01:58:12;;;;;;;20.92;9.65;;;-3.70;99.90;;;-4.36;96.95;101880.28;4836342;28;24483;-64
2024/01/20 02:00:34;;;;;;;23.45;9.85;;;-3.80;99.90;;;-4.33;97.52;101876.91;4836099;28;24478;-64
2024/01/20 02:02:56;;;;;;;23.98;11.32;;;-3.80;99.90;;;-4.30;97.32;101876.94;4828622;28;24822;-66
2024/01/20 02:05:18;;;;;;;20.55;11.23;;;-3.80;99.90;;;-4.27;97.63;101871.84;4836128;28;24512;-64
2024/01/20 02:07:42;;;;;;;21.77;10.20;;;-3.80;99.90;;;-4.26;97.72;101874.41;4850291;28;25021;-66
2024/01/20 02:10:06;;;;;;;22.80;10.63;;;-3.80;99.90;;;-4.24;98.07;101869.34;4828700;28;25053;-64
2024/01/20 02:12:29;;;;;;;20.88;10.20;;;-3.80;99.90;;;-4.20;98.00;101869.38;4831416;28;24886;-64
2024/01/20 02:14:52;;;;;;;21.90;10.23;;;-3.80;99.90;;;-4.21;98.27;101874.44;4827176;28;24521;-65
2024/01/20 02:17:14;;;;;;;21.42;10.50;;;-3.80;99.90;;;-4.23;97.47;101873.56;4821379;28;24941;-64
2024/01/20 02:19:38;;;;;;;22.63;10.63;;;-3.80;99.90;;;-4.39;98.08;101874.31;4850413;28;24475;-64
2024/01/20 02:22:07;;;;;;;22.23;10.10;;;-3.80;99.90;;;-4.45;97.33;101882.72;4850823;28;24442;-64
2024/01/20 02:24:29;;;;;;;16.23;9.05;;;-3.90;99.90;;;-4.63;97.62;101882.59;4825580;28;24507;-65
2024/01/20 02:26:51;;;;;;;18.15;8.80;;;-4.00;99.90;;;-4.76;97.30;101884.16;4817833;28;24435;-65
2024/01/20 02:29:13;;;;;;;16.60;7.95;;;-4.10;99.90;;;-4.76;97.04;101886.69;4834112;28;24982;-68
2024/01/20 02:31:38;;;;;;;21.75;9.68;;;-4.20;99.90;;;-4.90;97.56;101884.84;4847665;28;24520;-64
2024/01/20 02:34:00;;;;;;;22.83;10.65;;;-4.30;99.90;;;-4.96;97.40;101885.63;4840325;28;24540;-65
2024/01/20 02:36:22;;;;;;;18.17;9.20;;;-4.40;99.90;;;-4.97;98.38;101886.47;4826680;28;24440;-65
2024/01/20 02:38:44;;;;;;;15.70;8.10;;;-4.40;99.90;;;-5.06;98.21;101891.47;4816818;28;24429;-65
2024/01/20 02:41:06;;;;;;;16.13;8.57;;;-4.40;99.90;;;-5.12;98.10;101885.44;4849106;28;24515;-64
2024/01/20 02:43:28;;;;;;;15.87;7.43;;;-4.50;99.90;;;-5.23;97.98;101882.78;4824667;28;24581;-64
2024/01/20 02:45:50;;;;;;;17.20;8.25;;;-4.60;99.90;;;-5.24;98.90;101885.31;4850428;28;24531;-64
2024/01/20 02:48:12;;;;;;;14.85;7.30;;;-4.60;99.90;;;-5.29;98.40;101885.25;4834575;28;24440;-65
2024/01/20 02:50:37;;;;;;;17.15;7.55;;;-4.60;99.90;;;-5.29;98.99;101882.69;4828198;28;25075;-65
2024/01/20 02:52:59;;;;;;;18.83;9.02;;;-4.70;99.90;;;-5.24;98.64;101888.72;4840539;28;25020;-64
2024/01/20 02:55:21;;;;;;;19.85;8.30;;;-4.70;99.90;;;-5.20;97.98;101890.44;4844851;28;25769;-64
2024/01/20 02:57:43;;;;;;;20.85;10.07;;;-4.60;99.90;;;-5.14;97.87;101887.97;4850409;28;24432;-64
2024/01/20 03:00:07;;;;;;;18.55;9.00;;;-4.60;99.90;;;-5.16;98.87;101889.66;4839604;28;25031;-64
2024/01/20 03:02:29;;;;;;;18.27;8.83;;;-4.60;99.90;;;-5.19;97.81;101888.75;4834411;28;24528;-64
2024/01/20 03:04:51;;;;;;;18.50;9.00;;;-4.60;99.90;;;-5.22;97.86;101888.72;4835415;28;24851;-65
2024/01/20 03:07:14;;;;;;;18.27;9.80;;;-4.60;99.90;;;-5.21;98.25;101893.81;4841972;28;24425;-65
2024/01/20 03:09:36;;;;;;;18.20;9.45;;;-4.70;99.90;;;-5.19;97.73;101891.28;4849635;28;24521;-65
2024/01/20 03:11:58;;;;;;;20.23;10.25;;;-4.70;99.90;;;-5.17;98.81;101903.19;4834762;28;24555;-65
2024/01/20 03:14:21;;;;;;;18.88;9.50;;;-4.70;99.90;;;-5.19;97.86;101899.78;4836722;28;25109;-64
2024/01/20 03:16:42;;;;;;;23.00;10.50;;;-4.70;99.90;;;-5.25;98.21;101899.72;4836846;28;24535;-64
2024/01/20 03:19:06;;;;;;;20.90;9.20;;;-4.70;99.90;;;-5.33;97.51;101898.75;4829996;28;24507;-64
2024/01/20 03:21:28;;;;;;;21.40;9.95;;;-4.80;99.90;;;-5.36;96.70;101900.41;4828981;28;24802;-64
2024/01/20 03:23:53;;;;;;;17.75;9.50;;;-4.80;99.90;;;-5.40;97.73;101896.97;4842764;28;24431;-64
2024/01/20 03:26:15;;;;;;;18.83;9.85;;;-4.80;99.90;;;-5.38;96.45;101892.75;4852441;28;24493;-65
2024/01/20 03:28:38;;;;;;;22.13;9.93;;;-4.80;99.90;;;-5.36;97.04;101898.72;4855969;28;24878;-64
2024/01/20 03:31:01;;;;;;;19.65;9.85;;;-4.90;99.90;;;-5.34;96.71;101897.03;4858246;28;24451;-65
2024/01/20 03:33:23;;;;;;;23.40;10.82;;;-4.90;99.90;;;-5.30;96.07;101898.78;4833905;28;24559;-63
2024/01/20 03:35:45;;;;;;;19.75;9.38;;;-4.80;99.90;;;-5.27;95.59;101903.94;4850620;28;24997;-64
2024/01/20 03:38:07;;;;;;;16.70;9.30;;;-4.80;99.90;;;-5.24;94.86;101905.66;4857390;28;25121;-64
2024/01/20 03:40:28;;;;;;;15.18;8.60;;;-4.80;99.90;;;-5.24;94.49;101909.06;4848669;28;24451;-63
2024/01/20 03:42:52;;;;;;;18.25;8.80;;;-4.70;99.90;;;-5.23;94.07;101912.44;4847128;28;25258;-64
2024/01/20 03:45:14;;;;;;;18.02;9.00;;;-4.70;99.90;;;-5.26;93.14;101905.63;4848758;28;24448;-64
2024/01/20 03:47:36;;;;;;;16.27;8.73;;;-4.80;99.90;;;-5.30;92.21;101905.59;4847828;28;24444;-64
2024/01/20 03:49:58;;;;;;;17.90;9.05;;;-4.80;99.90;;;-5.34;93.21;101914.84;4855671;28;24837;-65
2024/01/20 03:52:21;;;;;;;20.77;9.83;;;-4.80;99.90;;;-5.36;93.08;101911.44;4845295;28;24499;-65
2024/01/20 03:54:42;;;;;;;15.05;8.50;;;-4.90;99.90;;;-5.35;93.29;101915.69;4850763;28;24519;-65
2024/01/20 03:57:05;;;;;;;18.27;9.20;;;-4.80;99.90;;;-5.34;92.87;101912.31;4827240;28;24476;-64
2024/01/20 03:59:27;;;;;;;18.53;9.00;;;-4.80;99.90;;;-5.31;92.02;101914.91;4838403;28;24830;-64
2024/01/20 04:01:49;;;;;;;17.90;9.00;;;-4.80;99.90;;;-5.33;91.66;101911.47;4839220;28;24451;-64
2024/01/20 04:04:10;;;;;;;17.20;9.03;;;-4.80;99.90;;;-5.30;92.12;101926.78;4832624;28;24490;-64
2024/01/20 04:06:33;;;;;;;18.60;9.85;;;-4.80;99.90;;;-5.29;91.31;101931.03;4849258;28;24494;-64
2024/01/20 04:08:54;;;;;;;17.98;9.55;;;-4.80;99.90;;;-5.33;90.76;101936.94;4851085;28;24436;-63
2024/01/20 04:11:16;;;;;;;19.57;10.00;;;-4.80;99.90;;;-5.39;89.59;101936.84;4831246;28;24506;-64
2024/01/20 04:13:39;;;;;;;20.02;9.93;;;-4.80;99.90;;;-5.54;89.58;101934.09;4840490;28;24801;-65
2024/01/20 04:16:01;;;;;;;18.30;9.33;;;-4.90;99.90;;;-5.59;87.99;101936.56;4854901;28;24534;-65
2024/01/20 04:18:23;;;;;;;17.95;9.82;;;-5.00;99.90;;;-5.63;87.76;101942.44;4834257;28;25079;-63
2024/01/20 04:20:45;;;;;;;18.13;8.68;;;-5.10;99.90;;;-5.70;87.43;101939.78;4851800;28;24436;-64
2024/01/20 04:23:07;;;;;;;18.85;9.05;;;-5.10;99.90;;;-5.76;87.78;101937.16;4852486;28;25035;-64
2024/01/20 04:25:29;;;;;;;20.48;9.82;;;-5.20;99.90;;;-5.82;87.86;101950.63;4854964;28;24506;-65
2024/01/20 04:27:51;;;;;;;17.42;9.45;;;-5.20;99.90;;;-5.87;87.60;101946.31;4856555;28;24494;-65
2024/01/20 04:30:13;;;;;;;16.92;8.65;;;-5.30;99.90;;;-5.90;86.81;101953.91;4857037;28;24452;-65
2024/01/20 04:32:36;;;;;;;16.20;8.70;;;-5.40;99.90;;;-5.96;87.23;101953.81;4856633;28;24443;-65
2024/01/20 04:34:58;;;;;;;17.67;8.75;;;-5.40;99.90;;;-6.00;87.92;101960.53;4853516;28;25212;-64
2024/01/20 04:37:20;;;;;;;17.67;9.10;;;-5.50;99.90;;;-6.06;87.61;101959.56;4837048;28;24515;-65
2024/01/20 04:39:41;;;;;;;14.63;8.88;;;-5.50;99.90;;;-6.07;88.13;101948.56;4832856;28;24981;-64
2024/01/20 04:42:04;;;;;;;18.80;9.20;;;-5.50;99.90;;;-6.10;86.70;101952.72;4855974;28;24432;-65
2024/01/20 04:44:26;;;;;;;20.80;8.90;;;-5.60;99.90;;;-6.13;87.26;101955.22;4853677;28;24493;-64
2024/01/20 04:46:48;;;;;;;18.83;8.60;;;-5.60;99.90;;;-6.15;86.62;101954.34;4857067;28;24439;-64
2024/01/20 04:49:10;;;;;;;16.48;8.55;;;-5.60;99.90;;;-6.20;86.70;101956.81;4847308;28;24547;-65
2024/01/20 04:51:32;;;;;;;15.32;8.55;;;-5.60;99.90;;;-6.22;84.96;101967.78;4850503;28;24507;-64
2024/01/20 04:53:54;;;;;;;21.52;9.57;;;-5.70;99.90;;;-6.28;86.30;101965.13;4844100;28;24933;-64
2024/01/20 04:56:22;;;;;;;21.00;9.25;;;-5.70;99.90;;;-6.29;85.69;101968.47;4846804;28;24456;-64
2024/01/20 04:58:45;;;;;;;19.42;8.93;;;-5.70;99.90;;;-6.32;85.73;101961.66;4853492;28;24862;-63
2024/01/20 05:01:07;;;;;;;19.27;9.05;;;-5.80;99.90;;;-6.36;84.37;101960.75;4830706;28;24428;-65
2024/01/20 05:03:29;;;;;;;16.10;8.10;;;-5.80;99.90;;;-6.40;85.83;101964.06;4845429;28;25083;-64
2024/01/20 05:05:50;;;;;;;17.05;8.35;;;-5.80;99.90;;;-6.44;83.36;101959.78;4827452;28;25021;-64
2024/01/20 05:08:12;;;;;;;17.33;8.48;;;-5.80;99.90;;;-6.56;82.75;101963.78;4837430;28;24973;-64
2024/01/20 05:10:34;;;;;;;17.55;8.25;;;-5.90;99.90;;;-6.72;82.70;101959.22;4853723;28;24543;-64
2024/01/20 05:12:56;;;;;;;14.93;8.70;;;-6.00;99.90;;;-6.87;83.36;101958.91;4835848;28;24830;-64
2024/01/20 05:15:18;;;;;;;15.90;8.77;;;-6.20;99.90;;;-6.96;84.31;101972.28;4814553;28;24521;-64
2024/01/20 05:17:41;;;;;;;16.65;8.55;;;-6.30;99.90;;;-6.95;84.90;101974.00;4846712;28;24455;-64
2024/01/20 05:20:05;;;;;;;18.57;8.80;;;-6.30;99.90;;;-6.90;84.73;101976.66;4853767;28;24451;-65
2024/01/20 05:22:27;;;;;;;17.42;8.68;;;-6.30;99.90;;;-6.86;84.88;101966.59;4847383;28;24439;-64
2024/01/20 05:24:49;;;;;;;15.43;8.20;;;-6.30;99.90;;;-6.81;85.18;101969.19;4853741;28;24832;-64
2024/01/20 05:27:11;;;;;;;14.57;7.70;;;-6.20;99.90;;;-6.83;85.63;101973.38;4854780;28;24989;-65
2024/01/20 05:29:33;;;;;;;13.87;7.57;;;-6.20;99.90;;;-6.88;86.65;101978.41;4852705;28;24469;-64
2024/01/20 05:31:55;;;;;;;13.88;7.97;;;-6.20;99.90;;;-6.83;86.68;101986.94;4852386;28;24458;-64
2024/01/20 05:34:16;;;;;;;14.65;8.40;;;-6.20;99.90;;;-6.81;87.61;101985.28;4852101;28;25308;-64
2024/01/20 05:36:39;;;;;;;15.27;8.00;;;-6.20;99.90;;;-6.74;87.80;101976.09;4832957;28;24546;-65
2024/01/20 05:39:00;;;;;;;12.32;7.97;;;-6.20;99.90;;;-6.68;87.58;101981.28;4835372;28;24878;-64
2024/01/20 05:41:22;;;;;;;15.20;7.53;;;-6.10;99.90;;;-6.67;87.91;101978.81;4856096;28;24428;-64
2024/01/20 05:43:44;;;;;;;15.63;7.68;;;-6.10;99.90;;;-6.73;89.68;101983.75;4832892;28;25061;-64
2024/01/20 05:46:06;;;;;;;13.25;7.05;;;-6.10;99.90;;;-6.82;90.63;101973.44;4835078;28;24468;-62
2024/01/20 05:48:28;;;;;;;12.55;7.10;;;-6.10;99.90;;;-6.93;90.82;101985.03;4825756;28;24466;-63
2024/01/20 05:50:51;;;;;;;14.85;7.50;;;-6.20;99.90;;;-6.91;91.69;101990.13;4849070;28;24531;-64
2024/01/20 05:53:12;;;;;;;11.43;6.30;;;-6.20;99.90;;;-6.98;92.38;101990.88;4838104;28;24451;-64
2024/01/20 05:55:34;;;;;;;13.35;7.22;;;-6.30;99.90;;;-6.88;91.34;101997.81;4828809;28;24494;-65
2024/01/20 05:57:57;;;;;;;14.15;7.40;;;-6.30;99.90;;;-6.81;90.20;102000.50;4816296;28;24436;-65
2024/01/20 06:00:21;;;;;;;11.73;6.88;;;-6.20;99.90;;;-6.79;90.70;102005.63;4852999;28;24497;-62
2024/01/20 06:02:43;;;;;;;11.43;7.20;;;-6.20;99.90;;;-6.73;90.55;102011.66;4833994;28;24432;-65
2024/01/20 06:05:05;;;;;;;15.75;7.40;;;-6.20;99.90;;;-6.68;91.06;102017.69;4850306;28;24518;-64
2024/01/20 06:07:27;;;;;;;10.27;6.60;;;-6.10;99.90;;;-6.60;90.45;102021.22;4832563;28;24459;-64
2024/01/20 06:09:49;;;;;;;12.32;7.10;;;-6.10;99.90;;;-6.52;92.17;102019.72;4835559;28;20758;-65
2024/01/20 06:12:12;;;;;;;17.05;8.50;;;-6.00;99.90;;;-6.46;91.65;102022.38;4850977;28;24873;-64
2024/01/20 06:14:35;;;;;;;13.20;7.10;;;-5.90;99.90;;;-6.42;90.59;102015.66;4848137;28;24513;-64
2024/01/20 06:16:57;;;;;;;12.32;7.55;;;-5.90;99.90;;;-6.37;90.31;102024.22;4828400;28;24505;-64
2024/01/20 06:19:19;;;;;;;16.30;8.90;;;-5.90;99.90;;;-6.38;88.69;102032.66;4830155;28;24917;-65
2024/01/20 06:21:41;;;;;;;18.58;9.70;;;-5.90;99.90;;;-6.42;87.33;102036.84;4842283;28;24798;-65
2024/01/20 06:24:04;;;;;;;19.25;9.75;;;-5.90;99.90;;;-6.48;86.08;102041.81;4827772;28;24548;-65
2024/01/20 06:26:26;;;;;;;25.75;12.38;;;-6.00;99.90;;;-6.53;86.63;102039.97;4842651;28;24521;-64
2024/01/20 06:28:48;;;;;;;23.63;10.63;;;-6.00;99.90;;;-6.59;85.94;102042.41;4854253;28;24439;-64
2024/01/20 06:31:23;;;;;;;20.23;10.20;;;-6.00;99.90;;;-6.64;84.99;102044.00;4851651;28;24514;-65
2024/01/20 06:33:46;;;;;;;19.67;10.20;;;-6.10;99.90;;;-6.72;85.06;102056.53;4847009;28;25054;-65
2024/01/20 06:36:08;;;;;;;19.80;10.25;;;-6.10;99.90;;;-6.75;84.81;102060.72;4845323;28;24519;-64
2024/01/20 06:38:31;;;;;;;18.25;9.85;;;-6.20;99.90;;;-6.78;84.25;102061.50;4835890;28;24969;-64
2024/01/20 06:40:52;;;;;;;20.25;10.32;;;-6.20;99.90;;;-6.79;84.15;102059.75;4828291;28;25059;-64
2024/01/20 06:43:14;;;;;;;16.35;9.23;;;-6.20;99.90;;;-6.78;84.51;102066.56;4841942;28;24504;-64
2024/01/20 06:45:36;;;;;;;17.70;8.88;;;-6.20;99.90;;;-6.77;83.58;102067.44;4834694;28;24432;-64
2024/01/20 06:48:00;;;;;;;17.45;7.55;;;-6.20;99.90;;;-6.74;84.43;102070.88;4837345;28;24543;-64
2024/01/20 06:50:22;;;;;;;15.77;8.40;;;-6.20;99.90;;;-6.77;85.08;102062.34;4818593;28;24460;-64
2024/01/20 06:52:44;;;;;;;9.90;6.38;;;-6.20;99.90;;;-6.78;84.69;102071.66;4849109;28;25275;-64
2024/01/20 06:55:06;;;;;;;14.47;7.33;;;-6.20;99.90;;;-6.74;83.57;102070.88;4835636;28;24992;-63
2024/01/20 06:57:29;;;;;;;11.00;6.40;;;-6.20;99.90;;;-6.78;83.70;102066.56;4855914;28;24603;-64
2024/01/20 06:59:52;;;;;;;15.38;6.82;;;-6.20;99.90;;;-6.78;84.93;102071.66;4840881;28;24435;-64
2024/01/20 07:02:14;;;;;;;11.80;6.68;;;-6.20;99.90;;;-6.75;85.18;102070.84;4821977;28;24452;-63
2024/01/20 07:04:36;;;;;;;10.45;5.90;;;-6.20;99.90;;;-6.76;84.93;102067.47;4856707;28;24431;-65
2024/01/20 07:06:58;;;;;;;11.35;6.43;;;-6.20;99.90;;;-6.72;85.05;102069.22;4851374;28;24448;-64
2024/01/20 07:09:19;;;;;;;15.57;6.80;;;-6.20;99.90;;;-6.68;84.51;102073.53;4848675;28;24518;-64
2024/01/20 07:11:41;;;;;;;11.27;6.40;;;-6.20;99.90;;;-6.60;84.97;102078.78;4847613;28;24895;-64
2024/01/20 07:14:03;;;;;;;13.05;7.05;;;-6.10;99.90;;;-6.56;85.81;102078.84;4846609;28;24428;-65
2024/01/20 07:16:26;;;;;;;13.13;7.40;;;-6.00;99.90;;;-6.51;85.58;102079.81;4848594;28;24522;-62
2024/01/20 07:18:48;;;;;;;13.57;7.60;;;-6.00;99.90;;;-6.44;85.16;102084.22;4847917;28;24439;-64
2024/01/20 07:21:12;;;;;;;14.30;7.60;;;-5.90;99.90;;;-6.39;85.10;102092.75;4821292;28;24804;-65
2024/01/20 07:23:34;;;;;;;11.80;7.03;;;-5.90;99.90;;;-6.34;84.87;102097.94;4843423;28;24485;-64
2024/01/20 07:25:58;;;;;;;16.50;7.75;;;-5.80;99.90;;;-6.34;85.37;102105.53;4856609;28;25015;-64
2024/01/20 07:28:20;;;;;;;13.73;7.40;;;-5.80;99.90;;;-6.32;84.63;102114.91;4839071;28;24424;-64
2024/01/20 07:30:42;;;;;;;14.30;8.15;;;-5.80;99.90;;;-6.34;83.23;102114.03;4837637;28;24491;-64
2024/01/20 07:33:03;;;;;;;18.27;9.70;;;-5.80;99.90;;;-6.34;83.58;102114.03;4854308;28;25444;-64
2024/01/20 07:35:26;;;;;;;18.90;10.18;;;-5.80;99.90;;;-6.28;83.57;102112.44;4857652;28;24435;-65
2024/01/20 07:37:47;;;;;;;17.65;8.60;;;-5.80;99.90;;;-6.26;83.15;102113.34;4835260;28;24519;-64
2024/01/20 07:40:10;;;;;;;18.88;9.57;;;-5.80;99.90;;;-6.27;82.86;102114.16;4837275;28;24525;-64
2024/01/20 07:42:34;;;;;;;17.75;9.68;;;-5.80;99.90;;;-6.25;82.32;102126.06;4820302;28;24520;-64
2024/01/20 07:44:56;;;;;;;17.65;10.00;;;-5.80;99.90;;;-6.26;82.07;102126.88;4827174;28;24521;-64
2024/01/20 07:47:18;;;;;;;19.23;9.35;;;-5.80;99.90;;;-6.23;83.46;102131.16;4846884;28;24435;-63
2024/01/20 07:49:40;;;;;;;18.45;9.80;;;-5.80;99.90;;;-6.15;82.91;102137.28;4832537;28;24894;-64
2024/01/20 07:52:02;;;;;;;19.13;10.02;;;-5.70;99.90;;;-6.12;83.80;102145.81;4847691;28;24460;-64
2024/01/20 07:54:24;;;;;;;17.85;9.50;;;-5.70;99.90;;;-6.06;82.78;102157.75;4839849;28;25069;-64
2024/01/20 07:56:46;;;;;;;15.70;8.85;;;-5.60;99.90;;;-5.95;83.16;102141.91;4837608;28;24997;-64
2024/01/20 07:59:08;;;;;;;16.00;7.80;;;-5.50;99.90;;;-5.87;83.07;102135.28;4838038;28;24424;-64
2024/01/20 08:01:30;;;;;;;15.13;7.63;;;-5.40;99.90;;;-5.67;81.96;102146.66;4853015;28;25007;-63
2024/01/20 08:03:53;;;;;;;13.40;7.63;;;-5.30;99.90;;;-5.32;81.71;102143.84;4854108;28;24571;-64
2024/01/20 08:06:15;;;;;;;13.07;7.32;;;-5.10;99.90;;;-4.84;81.20;102149.69;4838512;28;24432;-64
2024/01/20 08:08:37;;;;;;;16.07;7.83;;;-4.70;99.90;;;-4.34;79.25;102146.13;4846319;28;24455;-64
2024/01/20 08:10:59;;;;;;;15.10;8.27;;;-4.30;99.90;;;-3.72;77.44;102139.19;4855829;28;25200;-64
2024/01/20 08:13:21;;;;;;;14.02;7.80;;;-3.80;99.90;;;-2.88;74.61;102146.75;4845144;28;24452;-64
2024/01/20 08:15:43;;;;;;;12.10;7.60;;;-3.20;99.90;;;-1.97;72.10;102144.63;4854005;28;24505;-63
2024/01/20 08:18:05;;;;;;;14.65;7.75;;;-2.60;99.90;;;-1.27;69.03;102149.03;4831565;28;20845;-63
2024/01/20 08:20:27;;;;;;;13.77;7.90;;;-1.90;99.90;;;-0.59;67.61;102154.09;4856405;28;24523;-65
2024/01/20 08:22:49;;;;;;;13.95;7.55;;;-1.30;99.90;;;0.10;65.80;102150.44;4854579;28;24454;-64
2024/01/20 08:25:13;;;;;;;14.77;7.65;;;-0.60;99.90;;;0.92;62.90;102148.16;4853448;28;24459;-65
2024/01/20 08:27:34;;;;;;;14.25;8.30;;;0.10;99.90;;;1.78;59.17;102157.56;4852895;28;24478;-65
2024/01/20 08:29:57;;;;;;;15.10;8.00;;;0.90;99.90;;;2.44;55.63;102155.84;4827603;28;24544;-64
2024/01/20 08:32:19;;;;;;;15.90;8.85;;;1.50;99.90;;;3.33;53.94;102164.69;4837392;28;24459;-64
2024/01/20 08:34:41;;;;;;;15.15;8.88;;;2.20;99.90;;;4.41;50.85;102166.78;4851779;28;24447;-64
2024/01/20 08:37:03;;;;;;;17.35;9.80;;;3.10;99.90;;;5.54;48.33;102177.81;4854586;28;24455;-66
2024/01/20 08:39:25;;;;;;;22.80;13.15;;;4.10;99.90;;;6.66;46.46;102178.00;4849481;28;24454;-65
2024/01/20 08:41:47;;;;;;;30.90;16.63;;;5.10;99.90;;;7.50;44.42;102180.34;4855612;28;25011;-65
2024/01/20 08:44:09;;;;;;;30.90;16.15;;;6.10;98.90;;;8.26;42.54;102175.00;4853064;28;25194;-64
2024/01/20 08:46:31;;;;;;;32.47;17.30;;;6.90;96.90;;;8.89;41.00;102175.06;4853236;28;24476;-65
2024/01/20 08:48:53;;;;;;;31.42;16.77;;;7.60;94.50;;;9.16;39.75;102184.34;4835014;28;24539;-64
2024/01/20 08:51:15;;;;;;;24.02;14.20;;;8.00;92.70;;;9.20;38.83;102185.06;4847318;28;24498;-62
2024/01/20 08:53:39;;;;;;;16.47;11.23;;;8.30;90.50;;;9.02;39.12;102186.69;4846367;28;24451;-63
2024/01/20 08:56:01;;;;;;;17.35;10.80;;;8.10;90.00;;;9.03;38.97;102188.34;4834609;28;24471;-66
2024/01/20 08:58:23;;;;;;;16.10;10.60;;;8.00;89.00;;;8.62;38.49;102186.59;4854207;28;24525;-64
2024/01/20 09:00:45;;;;;;;18.13;10.93;;;7.90;87.00;;;7.72;39.26;102196.88;4853255;28;24519;-62
2024/01/20 09:03:07;;;;;;;19.25;12.00;;;7.30;85.10;;;6.56;42.29;102198.16;4827735;28;24557;-62
2024/01/20 09:05:29;;;;;;;20.08;12.35;;;6.40;87.60;;;5.35;44.15;102193.81;4835681;28;24516;-63
2024/01/20 09:07:59;;;;;;;20.25;11.85;;;5.40;89.70;;;4.95;45.92;102200.00;4838405;28;24431;-64
2024/01/20 09:10:21;;;;;;;23.97;12.80;;;4.80;91.00;;;4.97;46.17;102198.22;4853247;28;24483;-64
2024/01/20 09:12:43;;;;;;;21.40;12.13;;;4.60;91.70;;;4.28;47.01;102200.69;4853892;28;24456;-65
2024/01/20 09:15:06;;;;;;;22.08;11.90;;;4.20;92.00;;;3.07;49.12;102201.25;4833828;28;24451;-65
2024/01/20 09:17:28;;;;;;;19.42;10.50;;;3.40;92.60;;;1.94;50.96;102195.13;4849653;28;21132;-65
2024/01/20 09:19:50;;;;;;;22.58;11.60;;;2.40;93.50;;;1.11;54.56;102195.13;4847385;28;25029;-65
2024/01/20 09:22:12;;;;;;;22.85;11.90;;;1.50;95.80;;;0.59;55.44;102202.34;4834309;28;25032;-66
2024/01/20 09:24:34;;;;;;;24.65;12.43;;;0.90;96.90;;;0.13;58.53;102200.91;4842212;28;24448;-63
2024/01/20 09:26:56;;;;;;;23.85;12.13;;;0.40;99.20;;;-0.01;59.14;102217.22;4841992;28;24432;-64
2024/01/20 09:29:18;;;;;;;26.33;11.70;;;0.10;99.90;;;-0.02;59.54;102224.88;4850451;28;24489;-65
2024/01/20 09:31:40;;;;;;;23.15;11.40;;;0.00;99.90;;;-0.04;59.47;102227.47;4847281;28;24463;-66
2024/01/20 09:34:03;;;;;;;20.27;11.13;;;0.00;99.90;;;-0.09;60.44;102218.94;4848466;28;25044;-64
2024/01/20 09:36:25;;;;;;;18.67;10.20;;;-0.10;99.90;;;0.11;60.56;102229.13;4851140;28;24436;-64
2024/01/20 09:38:47;;;;;;;15.80;9.20;;;-0.10;99.90;;;0.10;60.07;102224.00;4843404;28;24520;-63
2024/01/20 09:41:09;;;;;;;18.45;10.00;;;-0.10;99.90;;;-0.03;61.42;102223.19;4842050;28;25061;-63
2024/01/20 09:43:32;;;;;;;17.90;10.33;;;-0.20;99.90;;;0.18;61.47;102227.38;4826551;28;25083;-64
2024/01/20 09:45:57;;;;;;;19.20;10.50;;;0.00;99.90;;;0.26;60.61;102213.66;4837397;28;24743;-64